Time;durP1;ratioP1;P1;durP2;ratioP2;P2;SDS_P1;SDS_P2;PMS_P1;PMS_P2;Temp;Humidity;BMP_temperature;BMP_pressure;BME280_temperature;BME280_humidity;BME280_pressure;Samples;Min_cycle;Max_cycle;Signal;HPM_P1;HPM_P2
2023/04/02 00:02:31;;;;;;;39.33;16.45;;;18.60;49.10;;;;;;5037297;28;20214;-84
2023/04/02 00:05:49;;;;;;;36.08;14.70;;;18.60;49.00;;;;;;5037011;28;20737;-83
2023/04/02 00:08:22;;;;;;;37.28;16.13;;;18.60;49.00;;;;;;5036194;28;20212;-83
2023/04/02 00:10:51;;;;;;;34.05;14.50;;;18.60;48.90;;;;;;5035686;28;20207;-82
2023/04/02 00:13:25;;;;;;;34.10;14.25;;;18.60;48.80;;;;;;5034586;28;20206;-82
2023/04/02 00:15:55;;;;;;;34.33;14.23;;;18.60;48.80;;;;;;5034032;28;20298;-83
2023/04/02 00:18:23;;;;;;;35.20;13.77;;;18.60;48.60;;;;;;5034086;28;20199;-82
2023/04/02 00:20:52;;;;;;;32.28;14.35;;;18.60;48.80;;;;;;5092184;22;20619;-84
2023/04/02 00:23:19;;;;;;;30.25;13.48;;;18.60;48.90;;;;;;5054861;28;20199;-84
2023/04/02 00:25:47;;;;;;;32.30;13.82;;;18.50;48.80;;;;;;5038396;28;20199;-84
2023/04/02 00:28:16;;;;;;;29.10;13.63;;;18.50;48.80;;;;;;5038745;28;20199;-84
2023/04/02 00:30:48;;;;;;;29.30;14.00;;;18.50;49.00;;;;;;5037628;28;20211;-84
2023/04/02 00:33:16;;;;;;;32.92;13.70;;;18.50;48.90;;;;;;5037255;28;20290;-83
2023/04/02 00:35:44;;;;;;;33.13;13.88;;;18.50;49.00;;;;;;5037667;28;20286;-84
2023/04/02 00:38:15;;;;;;;26.83;12.10;;;18.50;49.00;;;;;;5037387;28;20273;-84
2023/04/02 00:40:42;;;;;;;27.75;12.57;;;18.50;49.00;;;;;;5037749;28;20183;-84
2023/04/02 00:43:15;;;;;;;29.67;12.77;;;18.50;49.00;;;;;;5037656;28;20195;-84
2023/04/02 00:45:49;;;;;;;28.90;12.85;;;18.50;49.00;;;;;;5038410;28;20191;-84
2023/04/02 00:48:26;;;;;;;32.35;13.30;;;18.50;49.00;;;;;;5038626;28;20282;-84
2023/04/02 00:50:54;;;;;;;30.02;12.88;;;18.40;49.00;;;;;;5037418;28;20195;-84
2023/04/02 00:53:23;;;;;;;29.42;12.77;;;18.40;49.00;;;;;;5020879;28;20658;-83
2023/04/02 00:55:50;;;;;;;27.25;12.07;;;18.40;49.00;;;;;;5037680;28;20191;-84
2023/04/02 00:58:22;;;;;;;30.25;12.90;;;18.40;49.00;;;;;;5037418;28;20195;-84
2023/04/02 01:00:51;;;;;;;28.85;12.05;;;18.40;49.00;;;;;;5037252;28;20246;-84
2023/04/02 01:03:34;;;;;;;26.83;11.98;;;18.40;49.00;;;;;;5037051;28;20568;-83
2023/04/02 01:06:09;;;;;;;28.27;12.27;;;18.40;49.00;;;;;;5036889;28;20203;-83
2023/04/02 01:08:44;;;;;;;25.85;11.40;;;18.40;49.00;;;;;;5038239;28;20218;-83
2023/04/02 01:11:19;;;;;;;27.17;11.50;;;18.30;48.90;;;;;;5037575;28;20187;-84
2023/04/02 01:13:48;;;;;;;22.77;11.32;;;18.30;49.00;;;;;;5037614;28;20198;-84
2023/04/02 01:16:19;;;;;;;22.98;11.65;;;18.30;49.00;;;;;;5038053;28;20233;-84
2023/04/02 01:18:50;;;;;;;25.70;10.88;;;18.30;49.00;;;;;;5037570;28;20222;-84
2023/04/02 01:21:35;;;;;;;24.08;10.93;;;18.30;49.10;;;;;;5038149;28;20253;-84
2023/04/02 01:24:04;;;;;;;21.25;10.57;;;18.30;49.20;;;;;;5036830;28;20639;-84
2023/04/02 01:26:56;;;;;;;24.80;10.63;;;18.30;49.20;;;;;;5039916;28;20218;-84
2023/04/02 01:29:25;;;;;;;23.05;10.75;;;18.30;49.10;;;;;;5039885;28;20203;-84
2023/04/02 01:31:53;;;;;;;23.48;10.52;;;18.30;49.20;;;;;;5037104;28;20207;-84
2023/04/02 01:34:22;;;;;;;24.02;10.60;;;18.30;49.20;;;;;;5037947;28;20245;-84
2023/04/02 01:37:03;;;;;;;23.13;10.05;;;18.30;49.20;;;;;;5037862;28;20319;-84
2023/04/02 01:39:38;;;;;;;20.63;10.02;;;18.20;49.10;;;;;;5039065;28;20199;-84
2023/04/02 01:42:08;;;;;;;21.85;9.90;;;18.30;49.30;;;;;;5040963;28;20211;-84
2023/04/02 01:44:40;;;;;;;24.45;10.13;;;18.20;49.10;;;;;;5082362;22;20342;-79
2023/04/02 01:47:10;;;;;;;22.20;9.95;;;18.20;49.00;;;;;;5037934;28;20216;-79
2023/04/02 01:49:39;;;;;;;21.42;9.73;;;18.20;49.10;;;;;;5038061;28;20196;-79
2023/04/02 01:52:06;;;;;;;18.02;9.98;;;18.20;49.10;;;;;;5037596;28;20571;-79
2023/04/02 01:54:36;;;;;;;19.65;10.27;;;18.20;49.00;;;;;;5037712;28;20239;-78
2023/04/02 01:57:04;;;;;;;20.23;9.75;;;18.20;49.00;;;;;;5037348;28;20345;-78
2023/04/02 01:59:33;;;;;;;19.52;9.15;;;18.20;49.00;;;;;;5037395;28;20200;-78
2023/04/02 02:02:04;;;;;;;17.92;8.93;;;18.20;49.00;;;;;;5037508;28;20674;-78
2023/04/02 02:04:33;;;;;;;20.65;9.15;;;18.20;49.00;;;;;;5037223;28;20216;-78
2023/04/02 02:07:01;;;;;;;21.85;9.20;;;18.20;49.00;;;;;;5037868;28;20219;-80
2023/04/02 02:09:29;;;;;;;18.98;9.15;;;18.10;49.10;;;;;;5037362;28;20235;-78
2023/04/02 02:11:57;;;;;;;18.95;8.75;;;18.20;49.20;;;;;;5037361;28;20250;-78
2023/04/02 02:14:25;;;;;;;17.00;9.05;;;18.20;49.10;;;;;;5037094;28;20200;-78
2023/04/02 02:16:55;;;;;;;16.00;8.15;;;18.20;49.20;;;;;;5057004;22;20235;-84
2023/04/02 02:19:27;;;;;;;16.48;8.40;;;18.20;49.20;;;;;;5040973;28;20199;-83
2023/04/02 02:21:54;;;;;;;18.20;8.68;;;18.20;49.20;;;;;;5040254;28;20283;-83
2023/04/02 02:24:23;;;;;;;19.08;8.75;;;18.20;49.20;;;;;;5039487;28;20212;-84
2023/04/02 02:27:07;;;;;;;14.55;8.18;;;18.20;49.20;;;;;;5039797;28;20254;-84
2023/04/02 02:29:36;;;;;;;18.58;9.13;;;18.20;49.30;;;;;;5041498;28;20286;-84
2023/04/02 02:32:04;;;;;;;16.48;8.15;;;18.20;49.20;;;;;;5040112;28;20279;-84
2023/04/02 02:34:36;;;;;;;16.52;8.55;;;18.20;49.30;;;;;;5039521;28;20549;-83
2023/04/02 02:37:04;;;;;;;19.90;9.10;;;18.10;49.20;;;;;;5040205;28;20760;-84
2023/04/02 02:39:35;;;;;;;18.30;9.00;;;18.20;49.20;;;;;;5039975;28;20231;-83
2023/04/02 02:42:04;;;;;;;18.98;9.10;;;18.20;49.30;;;;;;5039592;28;20198;-83
2023/04/02 02:44:32;;;;;;;14.85;7.72;;;18.20;49.20;;;;;;5039226;28;20261;-84
2023/04/02 02:47:01;;;;;;;16.30;7.85;;;18.20;49.30;;;;;;5039858;28;20262;-83
2023/04/02 02:49:30;;;;;;;15.80;7.93;;;18.10;49.00;;;;;;5039296;28;20203;-84
2023/04/02 02:52:01;;;;;;;16.17;8.38;;;18.10;49.00;;;;;;5039896;28;20286;-84
2023/04/02 02:54:36;;;;;;;15.13;8.00;;;18.10;49.00;;;;;;5039906;28;20593;-84
2023/04/02 02:57:05;;;;;;;17.73;7.75;;;18.10;49.00;;;;;;5038957;28;20290;-83
2023/04/02 02:59:32;;;;;;;14.57;7.95;;;18.10;49.10;;;;;;5039063;28;20204;-83
2023/04/02 03:02:01;;;;;;;16.52;7.57;;;18.10;49.00;;;;;;5039066;28;20210;-83
2023/04/02 03:04:29;;;;;;;14.82;7.45;;;18.10;49.00;;;;;;5038676;28;20212;-84
2023/04/02 03:06:59;;;;;;;15.55;8.05;;;18.10;49.00;;;;;;5039258;28;20215;-84
2023/04/02 03:09:33;;;;;;;14.85;7.57;;;18.10;48.90;;;;;;5039220;28;20211;-84
2023/04/02 03:12:03;;;;;;;16.90;7.40;;;18.20;48.90;;;;;;5039030;28;20196;-83
2023/04/02 03:14:33;;;;;;;14.57;7.10;;;18.20;49.00;;;;;;5007226;28;20184;-83
2023/04/02 03:17:04;;;;;;;14.25;8.02;;;18.20;49.00;;;;;;5040302;28;20273;-83
2023/04/02 03:19:34;;;;;;;14.45;7.28;;;18.20;49.20;;;;;;5039519;28;20200;-83
2023/04/02 03:22:06;;;;;;;14.77;7.60;;;18.10;49.70;;;;;;5039843;28;20516;-83
2023/04/02 03:24:40;;;;;;;13.15;7.13;;;18.10;49.10;;;;;;5038919;28;20225;-83
2023/04/02 03:27:10;;;;;;;15.15;7.13;;;18.20;49.20;;;;;;5039119;28;20321;-83
2023/04/02 03:29:39;;;;;;;15.07;7.90;;;18.20;49.20;;;;;;5038528;28;20206;-83
2023/04/02 03:32:11;;;;;;;16.45;7.25;;;18.20;49.30;;;;;;5039568;28;20204;-83
2023/04/02 03:34:41;;;;;;;14.77;8.27;;;18.20;49.20;;;;;;5038338;28;20607;-83
2023/04/02 03:37:14;;;;;;;13.43;7.65;;;18.20;49.50;;;;;;5039854;28;20219;-83
2023/04/02 03:39:42;;;;;;;14.05;7.35;;;18.20;49.40;;;;;;5038422;28;20654;-83
2023/04/02 03:42:13;;;;;;;11.55;6.97;;;18.30;49.40;;;;;;5038545;28;20242;-83
2023/04/02 03:44:45;;;;;;;15.50;7.90;;;18.30;49.10;;;;;;5038257;28;20572;-84
2023/04/02 03:47:14;;;;;;;12.45;7.20;;;18.40;48.90;;;;;;5022497;28;20297;-84
2023/04/02 03:49:44;;;;;;;15.55;8.30;;;18.40;49.00;;;;;;5038186;28;20206;-83
2023/04/02 03:52:14;;;;;;;12.25;6.93;;;18.50;49.00;;;;;;5037991;28;20203;-83
2023/04/02 03:54:43;;;;;;;12.93;6.75;;;18.50;48.80;;;;;;5038146;28;20191;-84
2023/04/02 03:57:11;;;;;;;15.77;7.50;;;18.50;48.70;;;;;;5037836;28;20311;-84
2023/04/02 03:59:41;;;;;;;14.73;7.85;;;18.60;48.80;;;;;;5038304;28;20558;-84
2023/04/02 04:02:14;;;;;;;15.25;7.75;;;18.60;48.50;;;;;;5038047;28;20192;-83
2023/04/02 04:04:44;;;;;;;13.52;7.32;;;18.70;48.50;;;;;;5038797;28;20214;-83
2023/04/02 04:07:16;;;;;;;12.07;7.15;;;18.70;48.40;;;;;;5037502;28;20215;-83
2023/04/02 04:09:43;;;;;;;12.02;6.47;;;18.70;48.40;;;;;;5037607;28;20184;-83
2023/04/02 04:12:17;;;;;;;10.98;6.30;;;18.60;48.40;;;;;;5038646;28;20265;-83
2023/04/02 04:14:45;;;;;;;13.07;6.68;;;18.60;48.50;;;;;;5038041;28;20180;-83
2023/04/02 04:17:15;;;;;;;13.15;6.65;;;18.60;48.50;;;;;;5037636;28;20223;-83
2023/04/02 04:19:46;;;;;;;11.77;6.28;;;18.50;48.50;;;;;;5037793;28;20226;-83
2023/04/02 04:22:18;;;;;;;11.88;6.00;;;18.60;48.60;;;;;;5038259;28;20187;-83
2023/04/02 04:24:48;;;;;;;11.77;5.95;;;18.50;48.50;;;;;;5037646;28;20322;-83
2023/04/02 04:27:21;;;;;;;11.43;6.38;;;18.50;48.40;;;;;;5037949;28;20242;-83
2023/04/02 04:29:52;;;;;;;10.35;5.60;;;18.50;48.50;;;;;;5038071;28;20210;-83
2023/04/02 04:32:26;;;;;;;9.88;5.75;;;18.50;48.50;;;;;;5038028;28;20234;-83
2023/04/02 04:34:59;;;;;;;7.57;5.47;;;18.50;48.40;;;;;;5052894;28;20195;-83
2023/04/02 04:37:34;;;;;;;10.82;6.40;;;18.50;48.40;;;;;;5039809;28;20243;-83
2023/04/02 04:40:10;;;;;;;11.43;5.97;;;18.50;48.40;;;;;;5038442;28;20199;-83
2023/04/02 04:42:37;;;;;;;10.40;5.53;;;18.50;48.40;;;;;;5038866;28;20286;-83
2023/04/02 04:45:12;;;;;;;11.50;5.57;;;18.50;48.40;;;;;;5023766;28;20325;-84
2023/04/02 04:47:42;;;;;;;8.77;5.60;;;18.50;48.40;;;;;;5012067;28;20219;-84
2023/04/02 04:50:13;;;;;;;9.55;5.40;;;18.50;48.40;;;;;;5037641;28;20204;-84
2023/04/02 04:52:42;;;;;;;9.55;5.38;;;18.50;48.50;;;;;;5037433;28;20195;-83
2023/04/02 04:55:30;;;;;;;9.18;5.53;;;18.40;48.50;;;;;;5037498;28;20192;-83
2023/04/02 04:58:02;;;;;;;10.40;5.40;;;18.40;48.40;;;;;;5037316;28;20218;-84
2023/04/02 05:00:35;;;;;;;10.60;5.35;;;18.40;48.50;;;;;;5037960;28;20680;-84
2023/04/02 05:03:08;;;;;;;9.50;5.35;;;18.40;49.00;;;;;;5037223;28;20200;-83
2023/04/02 05:05:37;;;;;;;7.68;5.10;;;18.40;49.00;;;;;;5036572;28;20218;-83
2023/04/02 05:08:12;;;;;;;10.70;5.40;;;18.50;48.40;;;;;;5036495;28;20274;-83
2023/04/02 05:10:41;;;;;;;10.18;5.50;;;18.40;48.30;;;;;;5037793;28;20202;-84
2023/04/02 05:13:13;;;;;;;8.80;5.38;;;18.50;48.50;;;;;;5036876;28;20194;-84
2023/04/02 05:15:43;;;;;;;7.68;4.55;;;18.40;48.40;;;;;;5036852;28;20195;-83
2023/04/02 05:18:17;;;;;;;8.13;5.05;;;18.50;48.30;;;;;;5036453;28;20268;-83
2023/04/02 05:20:48;;;;;;;8.25;4.90;;;18.40;48.20;;;;;;5036204;28;20572;-83
2023/04/02 05:23:18;;;;;;;8.52;4.82;;;18.40;48.30;;;;;;5036504;28;20198;-83
2023/04/02 05:25:52;;;;;;;10.15;5.55;;;18.40;48.30;;;;;;5020113;28;20241;-84
2023/04/02 05:28:21;;;;;;;8.05;4.82;;;18.40;48.30;;;;;;5037141;28;20195;-83
2023/04/02 05:30:51;;;;;;;8.05;5.10;;;18.40;48.30;;;;;;5036091;28;20249;-83
2023/04/02 05:33:23;;;;;;;9.20;4.72;;;18.40;48.30;;;;;;5037460;28;20223;-83
2023/04/02 05:35:53;;;;;;;8.45;5.10;;;18.40;48.30;;;;;;5036846;28;20607;-83
2023/04/02 05:38:23;;;;;;;8.57;4.93;;;18.40;48.40;;;;;;5036495;28;20301;-83
2023/04/02 05:40:51;;;;;;;7.97;4.88;;;18.40;48.40;;;;;;5036457;28;20253;-83
2023/04/02 05:43:19;;;;;;;8.35;4.55;;;18.40;48.40;;;;;;5036451;28;20203;-83
2023/04/02 05:45:52;;;;;;;7.85;4.57;;;18.40;48.30;;;;;;5036256;28;20293;-83
2023/04/02 05:48:22;;;;;;;8.75;4.97;;;18.40;48.40;;;;;;5039402;28;20265;-83
2023/04/02 05:50:51;;;;;;;6.93;4.20;;;18.40;48.40;;;;;;5038198;28;20195;-83
2023/04/02 05:53:26;;;;;;;9.05;4.55;;;18.40;48.40;;;;;;5038892;28;20272;-83
2023/04/02 05:55:57;;;;;;;8.63;4.20;;;18.40;48.50;;;;;;5037657;28;20241;-83
2023/04/02 05:58:28;;;;;;;7.25;4.25;;;18.40;48.40;;;;;;5036714;28;20237;-83
2023/04/02 06:01:19;;;;;;;7.47;4.50;;;18.50;48.50;;;;;;5037385;28;20677;-83
2023/04/02 06:03:56;;;;;;;9.13;4.85;;;18.40;48.60;;;;;;5036716;28;20275;-84
2023/04/02 06:06:56;;;;;;;8.02;4.68;;;18.50;48.60;;;;;;5036612;28;20722;-83
2023/04/02 06:09:30;;;;;;;8.13;4.43;;;18.40;48.60;;;;;;5031296;28;20666;-84
2023/04/02 06:12:00;;;;;;;7.75;4.20;;;18.40;48.70;;;;;;5037987;28;20571;-83
2023/04/02 06:14:28;;;;;;;5.82;3.83;;;18.50;48.60;;;;;;5022302;28;20195;-84
2023/04/02 06:16:55;;;;;;;7.97;4.05;;;18.40;48.50;;;;;;5036906;28;20211;-83
2023/04/02 06:19:25;;;;;;;7.53;4.40;;;18.50;48.70;;;;;;5037368;28;20233;-83
2023/04/02 06:21:53;;;;;;;6.53;3.92;;;18.50;48.70;;;;;;5048477;22;20324;-81
2023/04/02 06:24:23;;;;;;;7.88;4.20;;;18.50;48.70;;;;;;5033892;28;20689;-79
2023/04/02 06:26:55;;;;;;;5.85;4.13;;;18.50;48.80;;;;;;5033389;28;20311;-78
2023/04/02 06:29:26;;;;;;;6.25;3.97;;;18.50;48.70;;;;;;5033684;28;20556;-78
2023/04/02 06:31:56;;;;;;;7.10;4.15;;;18.50;48.60;;;;;;5035031;28;20196;-78
2023/04/02 06:34:25;;;;;;;5.65;3.55;;;18.50;48.60;;;;;;5036845;28;20290;-78
2023/04/02 06:37:15;;;;;;;5.82;4.10;;;18.50;48.50;;;;;;5036954;28;20220;-78
2023/04/02 06:39:43;;;;;;;6.70;3.83;;;18.60;48.70;;;;;;5037647;28;20238;-78
2023/04/02 06:42:13;;;;;;;7.28;3.90;;;18.50;48.30;;;;;;5037308;28;20224;-79
2023/04/02 06:44:59;;;;;;;6.07;3.85;;;18.60;48.40;;;;;;5038545;28;20519;-78
2023/04/02 06:47:36;;;;;;;5.53;3.65;;;18.60;48.30;;;;;;5037817;28;20227;-78
2023/04/02 06:50:06;;;;;;;5.72;3.45;;;18.60;48.30;;;;;;5020594;28;20196;-79
2023/04/02 06:52:36;;;;;;;5.35;3.75;;;18.60;48.80;;;;;;5038047;28;20196;-79
2023/04/02 06:55:21;;;;;;;5.18;3.78;;;18.70;48.30;;;;;;5021236;28;20185;-79
2023/04/02 06:57:51;;;;;;;5.82;3.95;;;18.60;48.10;;;;;;5036724;28;20226;-79
2023/04/02 07:00:23;;;;;;;5.60;3.97;;;18.70;48.30;;;;;;5037091;28;20200;-79
2023/04/02 07:02:51;;;;;;;7.32;4.30;;;18.70;48.10;;;;;;5037122;28;20188;-79
2023/04/02 07:05:19;;;;;;;6.90;3.25;;;18.70;48.10;;;;;;5036864;28;20219;-79
2023/04/02 07:07:48;;;;;;;6.82;4.32;;;18.70;48.10;;;;;;5037845;28;20223;-79
2023/04/02 07:10:15;;;;;;;5.85;3.67;;;18.70;48.10;;;;;;5037071;28;20203;-79
2023/04/02 07:12:42;;;;;;;6.53;3.83;;;18.70;48.10;;;;;;5037051;28;20295;-79
2023/04/02 07:15:13;;;;;;;4.72;3.65;;;18.70;48.00;;;;;;5038288;28;20250;-79
2023/04/02 07:17:40;;;;;;;5.55;3.30;;;18.80;48.20;;;;;;5036737;28;20212;-79
2023/04/02 07:20:13;;;;;;;6.18;3.28;;;18.70;48.10;;;;;;5020367;28;20196;-79
2023/04/02 07:22:40;;;;;;;5.85;3.63;;;18.80;48.00;;;;;;5036504;28;20193;-78
2023/04/02 07:25:08;;;;;;;4.55;3.33;;;18.70;47.90;;;;;;5037039;28;20701;-79
2023/04/02 07:27:35;;;;;;;4.40;3.58;;;18.70;47.90;;;;;;5036346;28;20719;-78
2023/04/02 07:30:03;;;;;;;5.63;3.67;;;18.80;48.00;;;;;;5036809;28;20196;-78
2023/04/02 07:32:31;;;;;;;6.45;3.75;;;18.80;47.90;;;;;;5036955;28;20192;-79
2023/04/02 07:34:59;;;;;;;6.65;3.35;;;18.80;48.30;;;;;;5035934;28;20204;-79
2023/04/02 07:37:26;;;;;;;6.13;3.47;;;18.80;47.70;;;;;;5035829;28;20216;-78
2023/04/02 07:39:53;;;;;;;5.78;3.58;;;18.80;47.70;;;;;;5036437;28;20196;-78
2023/04/02 07:42:20;;;;;;;5.90;3.60;;;19.00;47.80;;;;;;5036316;28;20290;-79
2023/04/02 07:44:47;;;;;;;5.85;3.10;;;19.10;47.60;;;;;;5038783;28;20240;-78
2023/04/02 07:47:15;;;;;;;5.80;3.50;;;19.10;47.30;;;;;;5036564;28;20228;-78
2023/04/02 07:49:43;;;;;;;4.80;3.25;;;19.20;47.20;;;;;;5019806;28;20196;-78
2023/04/02 07:52:11;;;;;;;5.07;3.30;;;19.20;47.20;;;;;;5036071;28;20199;-78
2023/04/02 07:54:39;;;;;;;4.53;3.50;;;19.30;47.10;;;;;;5035511;28;20207;-78
2023/04/02 07:57:06;;;;;;;5.82;3.28;;;19.30;47.10;;;;;;5036109;28;20299;-78
2023/04/02 07:59:33;;;;;;;4.80;3.40;;;19.40;47.00;;;;;;5037112;28;20250;-78
2023/04/02 08:02:01;;;;;;;5.70;3.53;;;19.40;46.80;;;;;;5035788;28;20206;-78
2023/04/02 08:04:28;;;;;;;5.68;3.45;;;19.40;46.80;;;;;;5035781;28;20200;-78
2023/04/02 08:06:56;;;;;;;5.43;3.53;;;19.50;46.70;;;;;;5035709;28;20286;-78
2023/04/02 08:09:23;;;;;;;6.25;3.50;;;19.50;46.60;;;;;;5036614;28;20206;-78
2023/04/02 08:11:50;;;;;;;5.20;3.03;;;19.50;46.50;;;;;;5036014;28;20273;-78
2023/04/02 08:14:17;;;;;;;5.00;3.00;;;19.50;46.40;;;;;;5035644;28;20196;-78
2023/04/02 08:16:46;;;;;;;4.97;3.17;;;19.50;46.40;;;;;;5035091;28;20211;-78
2023/04/02 08:19:14;;;;;;;5.22;3.35;;;19.60;46.40;;;;;;5035937;28;20258;-78
2023/04/02 08:21:41;;;;;;;4.43;3.08;;;19.60;46.40;;;;;;5034942;28;20218;-78
2023/04/02 08:24:10;;;;;;;4.28;2.80;;;19.50;46.30;;;;;;5034564;28;20589;-78
2023/04/02 08:26:36;;;;;;;5.13;3.10;;;19.60;46.20;;;;;;5035657;28;20224;-78
2023/04/02 08:29:04;;;;;;;5.88;3.45;;;19.50;46.10;;;;;;5034851;28;20205;-78
2023/04/02 08:31:31;;;;;;;6.07;3.15;;;19.60;46.20;;;;;;5018898;28;20288;-78
2023/04/02 08:33:58;;;;;;;4.18;3.10;;;19.60;46.30;;;;;;5034600;28;20258;-78
2023/04/02 08:36:27;;;;;;;4.65;3.40;;;19.60;46.20;;;;;;5018828;28;20223;-78
2023/04/02 08:38:55;;;;;;;5.70;3.58;;;19.60;46.20;;;;;;5034914;28;20200;-78
2023/04/02 08:41:26;;;;;;;4.95;3.30;;;19.60;46.20;;;;;;5018784;28;20285;-78
2023/04/02 08:44:10;;;;;;;5.63;3.38;;;19.60;46.00;;;;;;5034874;28;20299;-78
2023/04/02 08:46:40;;;;;;;4.85;2.88;;;19.70;46.20;;;;;;5018383;28;20216;-78
2023/04/02 08:49:12;;;;;;;4.28;2.80;;;19.70;46.20;;;;;;5035007;28;20622;-79
2023/04/02 08:51:40;;;;;;;5.60;3.20;;;19.70;46.30;;;;;;5034164;28;20639;-81
2023/04/02 08:54:12;;;;;;;4.93;3.20;;;19.70;46.00;;;;;;5033935;28;20195;-78
2023/04/02 08:56:43;;;;;;;3.20;2.67;;;19.70;46.70;;;;;;5034526;28;20262;-79
2023/04/02 08:59:16;;;;;;;4.75;2.90;;;19.70;45.90;;;;;;5036522;28;20210;-79
2023/04/02 09:01:46;;;;;;;3.75;2.90;;;19.70;46.00;;;;;;5035193;28;20571;-78
2023/04/02 09:04:15;;;;;;;4.40;2.83;;;19.70;46.10;;;;;;5035540;28;20203;-80
2023/04/02 09:06:42;;;;;;;4.75;2.92;;;19.60;46.10;;;;;;5034638;28;20346;-80
2023/04/02 09:09:11;;;;;;;4.93;2.60;;;19.60;46.40;;;;;;5035341;28;20196;-80
2023/04/02 09:11:46;;;;;;;3.45;2.72;;;19.60;46.30;;;;;;5034338;28;20199;-80
2023/04/02 09:14:16;;;;;;;5.55;3.03;;;19.60;46.60;;;;;;5035412;28;20259;-80
2023/04/02 09:16:46;;;;;;;4.40;2.95;;;19.50;47.50;;;;;;5034613;28;20208;-80
2023/04/02 09:19:19;;;;;;;5.85;3.00;;;19.50;48.70;;;;;;5034909;28;20192;-80
2023/04/02 09:21:52;;;;;;;4.13;2.90;;;19.50;49.10;;;;;;5035874;28;20204;-80
2023/04/02 09:24:20;;;;;;;8.45;3.85;;;19.60;50.20;;;;;;5034868;28;20202;-80
2023/04/02 09:26:48;;;;;;;4.32;2.88;;;19.60;50.10;;;;;;5035734;28;20649;-81
2023/04/02 09:29:24;;;;;;;4.28;2.90;;;19.60;49.50;;;;;;5033764;28;21015;-80
2023/04/02 09:31:56;;;;;;;409.45;249.57;;;19.60;49.40;;;;;;5034431;28;20192;-80
2023/04/02 09:34:27;;;;;;;133.38;83.75;;;19.70;52.10;;;;;;5034595;28;20206;-80
2023/04/02 09:36:54;;;;;;;142.13;98.72;;;19.80;51.20;;;;;;5034379;28;20232;-80
2023/04/02 09:39:22;;;;;;;86.45;53.50;;;19.80;52.00;;;;;;5034174;28;20200;-80
2023/04/02 09:41:51;;;;;;;79.45;48.63;;;19.80;51.20;;;;;;5034624;28;20210;-80
2023/04/02 09:44:20;;;;;;;71.25;44.25;;;19.80;51.20;;;;;;5034308;28;20200;-80
2023/04/02 09:46:49;;;;;;;68.38;39.38;;;19.80;50.70;;;;;;5034752;28;20293;-80
2023/04/02 09:49:17;;;;;;;61.70;36.92;;;19.90;50.30;;;;;;5035353;28;20295;-80
2023/04/02 09:51:44;;;;;;;57.22;34.33;;;19.80;50.10;;;;;;5021107;28;20659;-80
2023/04/02 09:54:14;;;;;;;50.42;34.20;;;19.90;50.00;;;;;;5035241;28;20200;-80
2023/04/02 09:56:59;;;;;;;45.33;28.38;;;19.90;49.90;;;;;;5019217;28;20219;-80
2023/04/02 09:59:28;;;;;;;45.47;31.65;;;19.90;50.10;;;;;;5034681;28;20189;-80
2023/04/02 10:02:02;;;;;;;43.92;26.90;;;19.90;49.90;;;;;;5033975;28;20211;-80
2023/04/02 10:04:37;;;;;;;40.50;27.63;;;20.00;49.90;;;;;;5034026;28;20204;-80
2023/04/02 10:07:05;;;;;;;41.53;25.08;;;20.00;49.70;;;;;;5036629;28;20227;-80
2023/04/02 10:09:34;;;;;;;41.00;23.92;;;19.90;49.30;;;;;;5037800;28;20246;-80
2023/04/02 10:12:02;;;;;;;36.92;22.70;;;20.00;49.20;;;;;;5037930;28;20220;-80
2023/04/02 10:14:32;;;;;;;36.30;22.65;;;20.00;48.80;;;;;;5037516;28;20200;-80
2023/04/02 10:17:01;;;;;;;32.40;22.77;;;20.10;48.80;;;;;;5038075;28;20226;-81
2023/04/02 10:19:30;;;;;;;37.30;22.60;;;20.10;49.20;;;;;;5037739;28;20208;-80
2023/04/02 10:21:57;;;;;;;33.95;21.52;;;20.10;48.80;;;;;;5037017;28;20199;-80
2023/04/02 10:24:27;;;;;;;32.03;19.73;;;20.10;48.90;;;;;;5037424;28;20196;-80
2023/04/02 10:26:58;;;;;;;29.05;18.55;;;20.10;48.60;;;;;;5036520;28;20311;-80
2023/04/02 10:29:46;;;;;;;28.33;16.40;;;20.10;48.40;;;;;;5036533;28;20560;-80
2023/04/02 10:32:14;;;;;;;30.92;18.67;;;20.10;48.50;;;;;;5020325;28;20709;-80
2023/04/02 10:34:44;;;;;;;24.73;15.85;;;20.10;48.10;;;;;;5036356;28;20207;-78
2023/04/02 10:37:27;;;;;;;26.35;15.85;;;20.20;47.90;;;;;;5036499;28;20248;-78
2023/04/02 10:39:55;;;;;;;25.33;16.38;;;20.10;48.10;;;;;;5036080;28;20196;-78
2023/04/02 10:42:26;;;;;;;25.80;16.05;;;20.10;48.40;;;;;;5036107;28;20635;-78
2023/04/02 10:44:57;;;;;;;28.40;15.38;;;20.10;48.40;;;;;;5036720;28;20250;-79
2023/04/02 10:47:31;;;;;;;25.75;15.38;;;20.10;48.50;;;;;;5043086;28;20311;-79
2023/04/02 10:50:04;;;;;;;26.95;16.00;;;20.20;49.10;;;;;;5038094;28;20623;-79
2023/04/02 10:52:34;;;;;;;26.80;14.32;;;20.20;49.60;;;;;;5038881;28;20529;-79
2023/04/02 10:55:02;;;;;;;24.83;14.82;;;20.20;49.30;;;;;;5036999;28;20200;-79
2023/04/02 10:57:33;;;;;;;24.52;14.13;;;20.20;49.00;;;;;;5020264;28;20236;-79
2023/04/02 11:00:08;;;;;;;21.13;13.93;;;20.10;48.90;;;;;;5036684;28;20211;-78
2023/04/02 11:02:39;;;;;;;27.08;15.10;;;20.20;48.90;;;;;;5036378;28;20199;-79
2023/04/02 11:05:14;;;;;;;22.83;14.38;;;20.20;49.00;;;;;;5036430;28;20203;-79
2023/04/02 11:07:56;;;;;;;21.88;13.45;;;20.10;49.00;;;;;;5036018;28;20219;-79
2023/04/02 11:10:23;;;;;;;21.63;12.52;;;20.10;49.00;;;;;;5035900;28;20261;-79
2023/04/02 11:12:54;;;;;;;21.20;12.60;;;20.20;49.00;;;;;;5035715;28;20223;-79
2023/04/02 11:15:23;;;;;;;20.55;12.82;;;20.10;49.00;;;;;;5035991;28;20203;-79
2023/04/02 11:17:50;;;;;;;20.27;12.00;;;20.10;49.20;;;;;;5035593;28;20299;-79
2023/04/02 11:20:43;;;;;;;21.80;11.75;;;20.20;49.10;;;;;;5035928;28;20210;-79
2023/04/02 11:23:11;;;;;;;17.95;10.65;;;20.10;48.90;;;;;;5035883;28;20231;-79
2023/04/02 11:25:38;;;;;;;17.80;10.77;;;20.20;49.20;;;;;;5035731;28;20228;-79
2023/04/02 11:28:23;;;;;;;17.90;11.98;;;20.10;49.10;;;;;;5035881;28;20216;-79
2023/04/02 11:30:52;;;;;;;16.85;10.98;;;20.10;49.00;;;;;;5035928;28;20212;-79
2023/04/02 11:33:38;;;;;;;19.20;10.25;;;20.20;49.30;;;;;;5035503;28;20200;-79
2023/04/02 11:36:27;;;;;;;19.45;11.27;;;20.10;49.20;;;;;;5036132;28;20240;-79
2023/04/02 11:38:54;;;;;;;17.85;9.88;;;20.10;49.10;;;;;;5035696;28;20200;-79
2023/04/02 11:42:00;;;;;;;16.98;10.07;;;20.10;49.00;;;;;;5018837;28;20192;-79
2023/04/02 11:44:27;;;;;;;18.05;9.38;;;20.20;49.20;;;;;;5035709;28;20258;-79
2023/04/02 11:47:15;;;;;;;16.85;9.70;;;20.20;49.10;;;;;;5035424;28;20298;-79
2023/04/02 11:50:25;;;;;;;15.82;9.27;;;20.20;49.20;;;;;;5035556;28;20193;-79
2023/04/02 11:52:53;;;;;;;16.48;8.75;;;20.20;49.20;;;;;;5035551;28;20219;-79
2023/04/02 11:55:23;;;;;;;17.45;8.80;;;20.20;49.30;;;;;;5035487;28;20200;-79
2023/04/02 11:58:25;;;;;;;15.77;8.43;;;20.20;49.30;;;;;;5034928;28;20247;-79
2023/04/02 12:01:28;;;;;;;15.10;9.05;;;20.20;49.20;;;;;;5036240;28;20199;-79
2023/04/02 12:04:15;;;;;;;14.48;8.77;;;20.20;49.20;;;;;;5035028;28;20199;-79
2023/04/02 12:06:55;;;;;;;12.43;8.05;;;20.20;49.10;;;;;;5036741;28;20262;-79
2023/04/02 12:09:23;;;;;;;11.32;7.13;;;20.20;49.10;;;;;;5034904;28;20203;-79
2023/04/02 12:11:50;;;;;;;14.82;7.43;;;20.20;49.20;;;;;;5035178;28;20206;-79
2023/04/02 12:14:34;;;;;;;14.10;7.88;;;20.20;49.00;;;;;;5034987;28;20192;-79
2023/04/02 12:17:01;;;;;;;15.73;7.40;;;20.30;49.00;;;;;;5034985;28;20227;-79
2023/04/02 12:19:29;;;;;;;12.23;7.28;;;20.40;48.90;;;;;;5035354;28;20273;-79
2023/04/02 12:21:58;;;;;;;13.63;7.30;;;20.40;48.80;;;;;;5034715;28;20659;-79
2023/04/02 12:24:25;;;;;;;13.55;7.40;;;20.50;48.60;;;;;;5034601;28;20201;-79
2023/04/02 12:27:07;;;;;;;14.20;7.50;;;20.50;48.60;;;;;;5018385;28;20710;-79
2023/04/02 12:29:36;;;;;;;13.10;7.20;;;20.60;48.90;;;;;;5033748;28;20187;-79
2023/04/02 12:32:02;;;;;;;13.88;7.20;;;20.50;48.60;;;;;;5034418;28;20266;-79
2023/04/02 12:34:31;;;;;;;13.27;6.65;;;20.60;48.60;;;;;;5034597;28;20199;-79
2023/04/02 12:37:02;;;;;;;13.35;6.40;;;20.70;48.60;;;;;;5034641;28;20212;-79
2023/04/02 12:39:30;;;;;;;11.07;6.70;;;20.60;48.40;;;;;;5035691;28;20188;-79
2023/04/02 12:41:57;;;;;;;13.20;6.80;;;20.60;48.30;;;;;;5036180;28;20659;-78
2023/04/02 12:44:25;;;;;;;13.13;6.13;;;20.70;48.40;;;;;;5034688;28;20262;-79
2023/04/02 12:46:52;;;;;;;12.88;6.10;;;20.70;48.10;;;;;;5035809;28;20219;-79
2023/04/02 12:49:27;;;;;;;10.65;5.63;;;20.70;48.20;;;;;;5033845;28;20231;-79
2023/04/02 12:51:56;;;;;;;9.82;5.72;;;20.70;48.10;;;;;;5034626;28;20195;-79
2023/04/02 12:54:23;;;;;;;9.88;5.93;;;20.70;47.90;;;;;;5034337;28;20199;-79
2023/04/02 12:56:50;;;;;;;8.80;5.70;;;20.80;48.20;;;;;;5033973;28;20231;-79
2023/04/02 12:59:29;;;;;;;11.48;5.90;;;20.70;48.00;;;;;;5034209;28;20199;-79
2023/04/02 13:01:58;;;;;;;11.50;5.80;;;20.70;48.10;;;;;;5034085;28;20257;-79